Time;durP1;ratioP1;P1;durP2;ratioP2;P2;SDS_P1;SDS_P2;PMS_P1;PMS_P2;Temp;Humidity;BMP_temperature;BMP_pressure;BME280_temperature;BME280_humidity;BME280_pressure;Samples;Min_cycle;Max_cycle;Signal;HPM_P1;HPM_P2
2022/06/17 00:00:47;;;;;;;0.40;0.40;;;16.40;92.40;;;;;;5054195;28;20728;-70
2022/06/17 00:03:35;;;;;;;0.40;0.40;;;16.30;92.70;;;;;;5055004;28;20591;-70
2022/06/17 00:06:26;;;;;;;0.40;0.40;;;16.30;93.00;;;;;;5055667;28;20201;-70
2022/06/17 00:09:17;;;;;;;0.50;0.50;;;16.40;93.10;;;;;;5053606;28;20572;-71
2022/06/17 00:12:08;;;;;;;0.50;0.50;;;16.30;92.90;;;;;;5054870;28;20215;-69
2022/06/17 00:15:15;;;;;;;0.40;0.40;;;16.40;93.30;;;;;;5053892;28;20231;-72
2022/06/17 00:18:03;;;;;;;0.50;0.50;;;16.30;93.10;;;;;;5053997;28;20580;-70
2022/06/17 00:20:51;;;;;;;0.50;0.50;;;16.30;93.10;;;;;;5054504;28;20212;-67
2022/06/17 00:23:40;;;;;;;0.40;0.40;;;16.30;93.30;;;;;;5053907;28;20213;-72
2022/06/17 00:26:29;;;;;;;0.50;0.50;;;16.20;93.50;;;;;;5053772;28;20243;-70
2022/06/17 00:29:19;;;;;;;0.50;0.50;;;16.20;93.70;;;;;;5053846;28;20201;-69
2022/06/17 00:32:08;;;;;;;0.50;0.50;;;16.10;93.60;;;;;;5054520;28;20206;-69
2022/06/17 00:34:57;;;;;;;0.50;0.50;;;16.10;93.80;;;;;;5053752;28;20225;-69
2022/06/17 00:37:45;;;;;;;0.50;0.50;;;16.00;93.70;;;;;;5054271;28;20209;-72
2022/06/17 00:40:35;;;;;;;0.50;0.50;;;15.90;93.90;;;;;;5052914;28;20232;-71
2022/06/17 00:43:29;;;;;;;0.40;0.40;;;15.90;94.30;;;;;;5053903;28;20300;-70
2022/06/17 00:46:28;;;;;;;0.50;0.50;;;15.80;94.70;;;;;;5053426;28;20584;-70
2022/06/17 00:49:21;;;;;;;0.60;0.60;;;15.70;94.70;;;;;;5052967;28;20211;-70
2022/06/17 00:52:20;;;;;;;0.50;0.50;;;15.60;95.00;;;;;;5052865;28;20201;-69
2022/06/17 00:55:18;;;;;;;0.45;0.45;;;15.50;95.40;;;;;;5052963;28;20224;-70
2022/06/17 00:58:15;;;;;;;0.40;0.40;;;15.40;96.00;;;;;;5057526;28;20201;-68
2022/06/17 01:01:11;;;;;;;0.50;0.50;;;15.30;96.40;;;;;;5053469;28;20856;-69
2022/06/17 01:04:02;;;;;;;0.50;0.50;;;15.30;96.90;;;;;;5055568;28;20227;-70
2022/06/17 01:06:53;;;;;;;0.50;0.50;;;15.20;97.40;;;;;;5049852;28;20584;-70
2022/06/17 01:09:58;;;;;;;0.40;0.40;;;15.10;98.10;;;;;;5054251;28;20201;-70
2022/06/17 01:12:53;;;;;;;0.47;0.47;;;15.00;99.10;;;;;;5053386;28;20278;-71
2022/06/17 01:15:42;;;;;;;0.40;0.40;;;15.00;99.90;;;;;;5054088;28;20213;-69
2022/06/17 01:18:35;;;;;;;0.50;0.50;;;14.90;99.90;;;;;;5053436;28;20204;-70
2022/06/17 01:21:33;;;;;;;0.50;0.50;;;14.80;99.90;;;;;;5052831;28;20212;-69
2022/06/17 01:24:26;;;;;;;0.50;0.50;;;14.80;99.90;;;;;;5053678;28;20232;-70
2022/06/17 01:27:18;;;;;;;0.50;0.50;;;14.70;99.90;;;;;;5052353;28;20205;-68
2022/06/17 01:30:09;;;;;;;0.50;0.50;;;14.70;99.90;;;;;;5052780;28;20204;-70
2022/06/17 01:33:02;;;;;;;0.50;0.50;;;14.60;99.90;;;;;;5052399;28;20248;-69
2022/06/17 01:35:54;;;;;;;0.50;0.50;;;14.50;99.90;;;;;;5052628;28;20206;-68
2022/06/17 01:38:46;;;;;;;0.40;0.40;;;14.50;99.90;;;;;;5053061;28;20267;-70
2022/06/17 01:41:36;;;;;;;0.50;0.50;;;14.40;99.90;;;;;;5052809;28;20197;-69
2022/06/17 01:44:33;;;;;;;2.70;2.60;;;14.40;99.90;;;;;;5052686;28;20720;-70
2022/06/17 01:47:26;;;;;;;0.50;0.50;;;14.30;99.90;;;;;;5053862;28;20201;-69
2022/06/17 01:50:18;;;;;;;0.50;0.50;;;14.30;99.90;;;;;;5053098;28;20201;-68
2022/06/17 01:53:10;;;;;;;0.50;0.50;;;14.30;99.90;;;;;;5052783;28;20306;-70
2022/06/17 01:56:02;;;;;;;0.50;0.50;;;14.30;99.90;;;;;;5052294;28;20251;-69
2022/06/17 01:58:57;;;;;;;0.50;0.50;;;14.20;99.90;;;;;;5052939;28;20263;-68
2022/06/17 02:01:49;;;;;;;0.50;0.50;;;14.10;99.90;;;;;;5053319;28;20225;-71
2022/06/17 02:04:40;;;;;;;0.50;0.50;;;14.10;99.90;;;;;;5052339;28;20221;-70
2022/06/17 02:07:32;;;;;;;0.50;0.50;;;14.10;99.90;;;;;;5052654;28;20205;-69
2022/06/17 02:10:21;;;;;;;0.50;0.50;;;14.00;99.90;;;;;;5052094;28;20224;-71
2022/06/17 02:13:12;;;;;;;0.40;0.40;;;13.90;99.90;;;;;;5052627;28;20710;-69
2022/06/17 02:16:04;;;;;;;0.40;0.40;;;13.90;99.90;;;;;;5052010;28;20287;-70
2022/06/17 02:18:54;;;;;;;0.40;0.40;;;13.80;99.90;;;;;;5051885;28;20256;-69
2022/06/17 02:21:46;;;;;;;0.40;0.40;;;13.80;99.90;;;;;;5052687;28;20201;-69
2022/06/17 02:24:35;;;;;;;0.50;0.50;;;13.80;99.90;;;;;;5051817;28;20225;-68
2022/06/17 02:27:24;;;;;;;0.50;0.50;;;13.70;99.90;;;;;;5053006;28;20276;-69
2022/06/17 02:30:13;;;;;;;0.50;0.50;;;13.70;99.90;;;;;;5052155;28;20634;-69
2022/06/17 02:33:06;;;;;;;0.40;0.40;;;13.70;99.90;;;;;;5051875;28;20225;-69
2022/06/17 02:35:58;;;;;;;0.50;0.50;;;13.70;99.90;;;;;;5053212;28;20197;-70
2022/06/17 02:38:46;;;;;;;0.50;0.50;;;13.70;99.90;;;;;;5051905;28;20201;-70
2022/06/17 02:41:34;;;;;;;0.50;0.50;;;13.70;99.90;;;;;;5052173;28;20416;-70
2022/06/17 02:44:25;;;;;;;0.50;0.50;;;13.80;99.90;;;;;;5051433;28;20719;-68
2022/06/17 02:47:13;;;;;;;0.50;0.50;;;13.70;99.90;;;;;;5051341;28;20201;-70
2022/06/17 02:50:04;;;;;;;0.40;0.40;;;13.70;99.90;;;;;;5051830;28;20778;-69
2022/06/17 02:52:54;;;;;;;0.50;0.50;;;13.70;99.90;;;;;;5054858;28;20252;-70
2022/06/17 02:55:44;;;;;;;0.40;0.40;;;13.70;99.90;;;;;;5054786;28;20749;-69
2022/06/17 02:58:44;;;;;;;0.50;0.50;;;13.70;99.90;;;;;;5052476;28;20198;-70
2022/06/17 03:01:34;;;;;;;0.50;0.50;;;13.60;99.90;;;;;;5052225;28;20250;-70
2022/06/17 03:04:25;;;;;;;0.50;0.50;;;13.70;99.90;;;;;;5052874;28;20590;-70
2022/06/17 03:07:18;;;;;;;0.50;0.50;;;13.70;99.90;;;;;;5052278;28;20679;-68
2022/06/17 03:10:10;;;;;;;0.40;0.40;;;13.60;99.90;;;;;;5052887;28;20439;-72
2022/06/17 03:13:03;;;;;;;0.50;0.50;;;13.60;99.90;;;;;;5053168;28;20424;-68
2022/06/17 03:15:55;;;;;;;0.50;0.50;;;13.60;99.90;;;;;;5052904;28;20321;-70
2022/06/17 03:18:45;;;;;;;0.50;0.50;;;13.60;99.90;;;;;;5051111;28;20432;-70
2022/06/17 03:21:34;;;;;;;0.50;0.50;;;13.60;99.90;;;;;;5051440;28;20685;-71
2022/06/17 03:24:28;;;;;;;0.50;0.50;;;13.60;99.90;;;;;;5051508;28;20224;-69
2022/06/17 03:27:21;;;;;;;0.50;0.50;;;13.60;99.90;;;;;;5053929;28;20751;-69
2022/06/17 03:30:11;;;;;;;0.50;0.50;;;13.70;99.90;;;;;;5054904;28;20723;-69
2022/06/17 03:33:09;;;;;;;0.50;0.50;;;13.70;99.90;;;;;;5057161;28;20247;-68
2022/06/17 03:36:00;;;;;;;0.50;0.50;;;13.70;99.90;;;;;;5056851;28;20213;-68
2022/06/17 03:38:53;;;;;;;0.50;0.50;;;13.70;99.90;;;;;;5055838;28;20576;-72
2022/06/17 03:41:47;;;;;;;0.50;0.50;;;13.70;99.90;;;;;;5055009;28;20848;-69
2022/06/17 03:44:40;;;;;;;0.50;0.50;;;13.70;99.90;;;;;;5055429;28;20291;-72
2022/06/17 03:47:44;;;;;;;0.53;0.53;;;13.70;99.90;;;;;;5055161;28;20689;-67
2022/06/17 03:50:35;;;;;;;0.40;0.40;;;13.60;99.90;;;;;;5054549;28;20432;-70
2022/06/17 03:53:26;;;;;;;0.50;0.50;;;13.60;99.90;;;;;;5054265;28;20236;-68
2022/06/17 03:56:18;;;;;;;1.23;0.87;;;13.70;99.90;;;;;;5055938;28;20464;-70
2022/06/17 03:59:15;;;;;;;0.50;0.50;;;13.70;99.90;;;;;;5054242;28;20197;-67
2022/06/17 04:02:08;;;;;;;0.50;0.50;;;13.80;99.90;;;;;;5054956;28;20603;-68
2022/06/17 04:04:57;;;;;;;0.47;0.47;;;13.80;99.90;;;;;;5054727;28;20483;-70
2022/06/17 04:07:45;;;;;;;0.50;0.50;;;13.90;99.90;;;;;;5054984;28;20209;-69
2022/06/17 04:10:34;;;;;;;0.50;0.50;;;13.90;99.90;;;;;;5053936;28;20211;-69
2022/06/17 04:13:26;;;;;;;0.40;0.40;;;14.00;99.90;;;;;;5055301;28;20525;-69
2022/06/17 04:16:23;;;;;;;0.50;0.50;;;14.00;99.90;;;;;;5054679;28;20987;-70
2022/06/17 04:19:15;;;;;;;0.50;0.50;;;14.00;99.90;;;;;;5054272;28;20280;-67
2022/06/17 04:22:14;;;;;;;0.50;0.50;;;14.10;99.90;;;;;;5054742;28;20347;-70
2022/06/17 04:25:06;;;;;;;0.50;0.50;;;14.10;99.90;;;;;;5054529;28;20220;-69
2022/06/17 04:27:59;;;;;;;0.50;0.50;;;14.20;99.90;;;;;;5054713;28;20428;-68
2022/06/17 04:30:51;;;;;;;0.50;0.50;;;14.20;99.90;;;;;;5055018;28;20217;-72
2022/06/17 04:33:45;;;;;;;0.50;0.50;;;14.30;99.90;;;;;;5053837;28;20678;-70
2022/06/17 04:36:39;;;;;;;0.50;0.50;;;14.30;99.90;;;;;;5054402;28;20876;-71
2022/06/17 04:39:31;;;;;;;0.40;0.40;;;14.40;99.90;;;;;;5054414;28;20201;-70
2022/06/17 04:42:23;;;;;;;0.50;0.50;;;14.50;99.90;;;;;;5053669;28;20255;-70
2022/06/17 04:45:18;;;;;;;0.50;0.50;;;14.50;99.90;;;;;;5054317;28;20255;-69
2022/06/17 04:48:08;;;;;;;0.50;0.50;;;14.60;99.90;;;;;;5054304;28;20259;-68
2022/06/17 04:50:57;;;;;;;0.50;0.50;;;14.60;99.90;;;;;;5058985;28;20201;-70
2022/06/17 04:53:47;;;;;;;0.50;0.50;;;14.70;99.90;;;;;;5053397;28;20224;-69
2022/06/17 04:56:41;;;;;;;0.50;0.50;;;14.70;99.90;;;;;;5054016;28;20217;-69
2022/06/17 04:59:33;;;;;;;0.50;0.50;;;14.30;99.90;;;;;;5053953;28;20262;-68
2022/06/17 05:02:23;;;;;;;0.50;0.50;;;14.90;99.90;;;;;;5053893;28;20255;-67
2022/06/17 05:05:17;;;;;;;0.50;0.50;;;14.90;99.90;;;;;;5053697;28;20243;-72
2022/06/17 05:08:11;;;;;;;0.40;0.40;;;15.00;99.90;;;;;;5054520;28;20225;-68
2022/06/17 05:11:03;;;;;;;0.50;0.50;;;15.10;99.90;;;;;;5053022;28;20205;-71
2022/06/17 05:13:54;;;;;;;0.50;0.50;;;15.30;99.90;;;;;;5053417;28;20233;-70
2022/06/17 05:16:42;;;;;;;0.50;0.50;;;15.30;99.90;;;;;;5053842;28;20271;-69
2022/06/17 05:19:30;;;;;;;0.50;0.50;;;15.40;99.90;;;;;;5053492;28;20201;-70
2022/06/17 05:22:26;;;;;;;0.50;0.50;;;15.50;99.90;;;;;;5054607;28;20316;-70
2022/06/17 05:25:25;;;;;;;0.50;0.50;;;15.60;99.90;;;;;;5053616;28;20229;-68
2022/06/17 05:28:15;;;;;;;1.00;0.90;;;15.70;99.90;;;;;;5053705;28;20572;-71
2022/06/17 05:31:03;;;;;;;0.70;0.70;;;15.80;99.90;;;;;;5052860;28;20197;-69
2022/06/17 05:33:51;;;;;;;3.13;2.88;;;15.90;99.90;;;;;;5053527;28;20310;-69
2022/06/17 05:36:39;;;;;;;0.50;0.50;;;16.00;99.90;;;;;;5053702;28;20225;-70
2022/06/17 05:39:28;;;;;;;0.98;0.60;;;16.00;99.90;;;;;;5051885;28;20193;-68
2022/06/17 05:42:17;;;;;;;0.50;0.50;;;16.10;99.90;;;;;;5044335;28;20194;-69
2022/06/17 05:45:08;;;;;;;0.50;0.50;;;16.10;99.90;;;;;;5052344;28;20311;-69
2022/06/17 05:47:56;;;;;;;0.60;0.60;;;16.20;99.90;;;;;;5052137;28;20251;-68
2022/06/17 05:50:45;;;;;;;0.50;0.50;;;16.20;99.90;;;;;;5052658;28;20212;-67
2022/06/17 05:53:33;;;;;;;0.50;0.50;;;16.30;99.90;;;;;;5052042;28;20226;-68
2022/06/17 05:56:21;;;;;;;0.45;0.45;;;16.40;99.90;;;;;;5053207;28;20244;-70
2022/06/17 05:59:11;;;;;;;0.40;0.40;;;16.40;99.90;;;;;;5053408;28;20615;-69
2022/06/17 06:01:59;;;;;;;0.75;0.75;;;16.50;99.90;;;;;;5047986;28;20246;-67
2022/06/17 06:04:47;;;;;;;0.40;0.40;;;16.50;99.90;;;;;;5045566;28;20236;-70
2022/06/17 06:07:35;;;;;;;0.40;0.40;;;16.60;99.90;;;;;;5054000;28;20692;-68
2022/06/17 06:10:25;;;;;;;0.80;0.80;;;16.70;99.90;;;;;;5052792;28;20290;-69
2022/06/17 06:13:16;;;;;;;0.40;0.40;;;16.80;99.90;;;;;;5051790;28;20226;-69
2022/06/17 06:16:07;;;;;;;0.50;0.50;;;16.80;99.90;;;;;;5053040;28;20213;-68
2022/06/17 06:18:55;;;;;;;0.40;0.40;;;16.90;99.90;;;;;;5052386;28;20198;-67
2022/06/17 06:21:43;;;;;;;0.68;0.68;;;17.00;99.90;;;;;;5053493;28;20216;-68
2022/06/17 06:24:31;;;;;;;0.52;0.52;;;17.00;99.90;;;;;;5052139;28;20677;-69
2022/06/17 06:27:20;;;;;;;0.50;0.50;;;17.10;99.90;;;;;;5052633;28;20244;-67
2022/06/17 06:30:18;;;;;;;0.50;0.50;;;17.20;99.90;;;;;;5051557;28;20245;-68
2022/06/17 06:33:10;;;;;;;0.50;0.50;;;17.20;99.90;;;;;;5051829;28;20236;-67
2022/06/17 06:35:59;;;;;;;0.40;0.40;;;17.20;99.90;;;;;;5052726;28;20213;-67
2022/06/17 06:38:48;;;;;;;0.50;0.50;;;17.30;99.90;;;;;;5052033;28;20201;-67
2022/06/17 06:41:36;;;;;;;0.40;0.40;;;17.40;99.90;;;;;;5052111;28;20274;-69
2022/06/17 06:44:24;;;;;;;0.50;0.50;;;17.40;99.90;;;;;;5050809;28;20224;-69
2022/06/17 06:47:13;;;;;;;0.47;0.47;;;17.50;99.90;;;;;;5057731;28;20202;-69
2022/06/17 06:50:02;;;;;;;0.50;0.50;;;17.60;99.90;;;;;;5051876;28;20275;-69
2022/06/17 06:52:50;;;;;;;0.40;0.40;;;17.70;99.90;;;;;;5052682;28;20215;-69
2022/06/17 06:55:39;;;;;;;0.40;0.40;;;17.80;99.90;;;;;;5052709;28;20254;-68
2022/06/17 06:58:28;;;;;;;1.15;0.60;;;18.00;99.90;;;;;;5051348;28;20221;-70
2022/06/17 07:01:16;;;;;;;0.80;0.70;;;18.10;99.90;;;;;;5050969;28;20204;-71
2022/06/17 07:04:05;;;;;;;0.40;0.40;;;18.20;99.90;;;;;;5050253;28;20221;-71
2022/06/17 07:06:54;;;;;;;0.52;0.52;;;18.30;99.90;;;;;;5052190;28;20193;-69
2022/06/17 07:09:43;;;;;;;0.60;0.60;;;18.30;99.90;;;;;;5051154;28;20306;-69
2022/06/17 07:12:31;;;;;;;0.40;0.40;;;18.40;99.90;;;;;;5052797;28;20220;-70
2022/06/17 07:15:19;;;;;;;0.50;0.50;;;18.50;99.90;;;;;;5062380;28;20573;-68
2022/06/17 07:18:12;;;;;;;0.50;0.50;;;18.60;99.90;;;;;;5071708;28;20200;-68
2022/06/17 07:21:04;;;;;;;0.50;0.50;;;18.60;99.90;;;;;;5070971;28;20579;-72
2022/06/17 07:23:53;;;;;;;0.70;0.70;;;18.70;99.90;;;;;;5071840;28;20306;-70
2022/06/17 07:26:41;;;;;;;2.70;1.15;;;18.70;99.90;;;;;;5072272;28;20689;-69
2022/06/17 07:29:29;;;;;;;0.70;0.70;;;18.70;99.90;;;;;;5071947;28;20201;-72
2022/06/17 07:32:17;;;;;;;0.45;0.45;;;18.70;99.90;;;;;;5071380;28;20212;-69
2022/06/17 07:35:07;;;;;;;0.43;0.43;;;18.80;99.90;;;;;;5072255;28;20277;-69
2022/06/17 07:41:04;;;;;;;0.70;0.55;;;18.90;99.90;;;;;;5070852;28;20291;-70
2022/06/17 07:43:53;;;;;;;0.60;0.60;;;19.00;99.90;;;;;;5071718;28;20216;-70
2022/06/17 07:46:43;;;;;;;0.50;0.50;;;19.10;99.90;;;;;;5071560;28;20285;-69
2022/06/17 07:49:32;;;;;;;1.63;0.90;;;19.10;99.90;;;;;;5072709;28;20255;-70
2022/06/17 07:52:27;;;;;;;0.50;0.50;;;19.10;99.90;;;;;;5071753;28;20204;-68
2022/06/17 07:55:16;;;;;;;1.77;1.42;;;19.20;99.90;;;;;;5071150;28;20197;-72
2022/06/17 07:58:06;;;;;;;0.68;0.68;;;19.30;99.90;;;;;;5055151;28;20232;-69
2022/06/17 08:00:55;;;;;;;0.50;0.50;;;19.30;99.90;;;;;;5050743;28;20682;-70
2022/06/17 08:03:43;;;;;;;0.60;0.60;;;19.30;99.90;;;;;;5051270;28;20268;-69
2022/06/17 08:06:31;;;;;;;0.50;0.50;;;19.30;99.90;;;;;;5050787;28;20308;-68
2022/06/17 08:09:21;;;;;;;4.40;1.15;;;19.30;99.90;;;;;;5048562;28;20201;-69
2022/06/17 08:12:13;;;;;;;0.65;0.60;;;19.40;99.90;;;;;;5049153;28;20202;-70
2022/06/17 08:15:08;;;;;;;6.80;1.67;;;19.60;99.90;;;;;;5050297;28;20230;-72
2022/06/17 08:17:56;;;;;;;0.70;0.70;;;19.60;99.90;;;;;;5048438;28;20224;-68
2022/06/17 08:20:45;;;;;;;0.60;0.60;;;19.70;99.90;;;;;;5045223;28;20281;-71
2022/06/17 08:23:33;;;;;;;2.72;1.65;;;19.70;99.90;;;;;;5053324;28;20260;-68
2022/06/17 08:26:21;;;;;;;1.05;0.98;;;19.80;99.90;;;;;;5051312;28;20210;-70
2022/06/17 08:29:09;;;;;;;0.57;0.57;;;19.80;99.90;;;;;;5054204;28;20213;-69
2022/06/17 08:35:28;;;;;;;0.47;0.47;;;19.90;99.90;;;;;;5035053;28;20201;-69
2022/06/17 08:38:21;;;;;;;0.90;0.50;;;19.80;99.90;;;;;;5034251;28;20233;-68
2022/06/17 08:41:24;;;;;;;0.40;0.40;;;19.90;99.90;;;;;;5039525;28;20212;-71
2022/06/17 08:44:28;;;;;;;0.85;0.77;;;20.00;99.90;;;;;;5043860;28;20210;-67
2022/06/17 08:47:43;;;;;;;0.40;0.40;;;20.10;99.90;;;;;;5054527;28;20197;-71
2022/06/17 08:50:45;;;;;;;0.52;0.52;;;20.10;99.90;;;;;;5041905;28;20395;-68
2022/06/17 08:54:06;;;;;;;0.88;0.55;;;20.20;99.90;;;;;;5050716;28;20221;-67
2022/06/17 08:57:02;;;;;;;0.40;0.40;;;20.40;99.90;;;;;;5053749;28;20714;-69
2022/06/17 09:00:11;;;;;;;0.80;0.68;;;20.50;99.90;;;;;;5036257;28;20209;-71
2022/06/17 09:03:28;;;;;;;0.60;0.60;;;20.50;99.90;;;;;;5052312;28;20279;-69
2022/06/17 09:06:29;;;;;;;0.60;0.50;;;20.60;99.90;;;;;;5038765;28;20202;-70
2022/06/17 09:09:32;;;;;;;0.52;0.52;;;20.50;99.40;;;;;;5036353;28;20239;-70
2022/06/17 09:12:30;;;;;;;0.50;0.50;;;20.50;99.30;;;;;;5039728;28;20205;-70
2022/06/17 09:15:29;;;;;;;0.40;0.40;;;20.60;99.40;;;;;;5052424;28;20237;-69
2022/06/17 09:18:28;;;;;;;0.50;0.50;;;20.60;97.90;;;;;;5039786;28;20214;-70
2022/06/17 09:21:21;;;;;;;0.50;0.50;;;20.70;98.50;;;;;;5051857;28;20201;-70
2022/06/17 09:24:15;;;;;;;0.50;0.50;;;20.80;97.10;;;;;;5039606;28;20217;-70
2022/06/17 09:27:05;;;;;;;0.40;0.40;;;20.70;96.70;;;;;;5052972;28;20200;-70
2022/06/17 09:29:57;;;;;;;1.30;0.90;;;20.70;96.60;;;;;;5037358;28;20257;-70
2022/06/17 09:32:50;;;;;;;0.50;0.50;;;20.70;96.60;;;;;;5052194;28;20213;-70
2022/06/17 09:35:48;;;;;;;0.50;0.50;;;20.80;95.90;;;;;;5052273;28;20336;-70
2022/06/17 09:38:42;;;;;;;0.50;0.50;;;20.90;95.80;;;;;;5052412;28;20220;-70
2022/06/17 09:41:37;;;;;;;0.60;0.60;;;21.10;95.70;;;;;;5049877;28;20208;-68
2022/06/17 09:44:30;;;;;;;0.60;0.60;;;21.20;95.70;;;;;;5051621;28;20217;-72
2022/06/17 09:47:25;;;;;;;0.50;0.50;;;21.30;95.50;;;;;;5045796;28;20216;-69
2022/06/17 09:50:18;;;;;;;1.40;1.05;;;21.30;94.90;;;;;;5045337;28;20276;-71
2022/06/17 09:53:14;;;;;;;0.40;0.40;;;21.30;94.60;;;;;;5046019;28;20221;-70
2022/06/17 09:56:08;;;;;;;0.40;0.40;;;21.20;95.00;;;;;;5033442;28;20198;-72
2022/06/17 09:59:01;;;;;;;0.70;0.70;;;21.40;94.40;;;;;;5044299;28;20221;-72
2022/06/17 10:01:49;;;;;;;0.40;0.40;;;21.40;94.00;;;;;;5051397;28;20296;-71
2022/06/17 10:04:38;;;;;;;0.50;0.50;;;21.50;93.90;;;;;;5050977;28;20221;-69
2022/06/17 10:07:32;;;;;;;0.75;0.75;;;21.50;92.70;;;;;;5052393;28;20205;-70
2022/06/17 10:10:33;;;;;;;0.50;0.50;;;21.50;92.60;;;;;;5052347;28;20221;-71
2022/06/17 10:13:30;;;;;;;0.40;0.40;;;21.60;92.50;;;;;;5050660;28;20229;-73
2022/06/17 10:19:59;;;;;;;1.02;1.02;;;21.80;92.80;;;;;;4990910;28;20203;-71
2022/06/17 10:22:55;;;;;;;0.70;0.70;;;21.80;92.70;;;;;;5052413;28;20616;-70
2022/06/17 10:25:55;;;;;;;0.50;0.50;;;22.00;92.40;;;;;;5051159;28;20201;-68
2022/06/17 10:29:03;;;;;;;0.60;0.60;;;22.00;91.40;;;;;;5050980;28;20247;-71
2022/06/17 10:31:51;;;;;;;0.50;0.50;;;22.10;90.80;;;;;;5034572;28;20216;-70
2022/06/17 10:34:44;;;;;;;0.50;0.50;;;22.30;91.30;;;;;;5050594;28;20239;-70
2022/06/17 10:37:36;;;;;;;0.40;0.40;;;22.40;90.60;;;;;;5051564;28;20259;-69
2022/06/17 10:40:42;;;;;;;0.50;0.50;;;22.60;90.90;;;;;;5051298;28;20198;-69
2022/06/17 10:43:36;;;;;;;0.40;0.40;;;22.60;90.20;;;;;;5063678;28;20225;-71
2022/06/17 10:46:29;;;;;;;0.40;0.40;;;22.60;88.80;;;;;;5050577;28;20548;-70
2022/06/17 10:49:25;;;;;;;0.50;0.50;;;22.60;88.70;;;;;;5051098;28;20205;-70
2022/06/17 10:52:19;;;;;;;0.40;0.40;;;22.70;88.70;;;;;;5038166;28;20198;-71
2022/06/17 10:55:16;;;;;;;0.40;0.40;;;22.70;87.80;;;;;;5049753;28;20271;-69
2022/06/17 10:58:10;;;;;;;0.40;0.40;;;22.90;87.70;;;;;;5037816;28;20213;-70
2022/06/17 11:01:03;;;;;;;0.77;0.77;;;23.00;88.00;;;;;;5050205;28;20209;-71
2022/06/17 11:04:09;;;;;;;0.40;0.40;;;23.00;86.70;;;;;;5035369;28;20217;-69
2022/06/17 11:07:01;;;;;;;0.40;0.40;;;23.00;86.70;;;;;;5050442;28;20268;-69
2022/06/17 11:09:52;;;;;;;0.80;0.70;;;23.10;85.80;;;;;;5050901;28;20196;-70
2022/06/17 11:12:44;;;;;;;0.40;0.40;;;23.20;84.70;;;;;;5051541;28;20204;-70
2022/06/17 11:15:36;;;;;;;0.40;0.40;;;23.20;81.80;;;;;;5050576;28;20202;-68
2022/06/17 11:18:30;;;;;;;0.40;0.40;;;23.40;81.80;;;;;;5049512;28;20240;-70
2022/06/17 11:21:22;;;;;;;0.40;0.40;;;23.50;81.90;;;;;;5051143;28;20197;-71
2022/06/17 11:24:21;;;;;;;0.40;0.40;;;23.50;82.00;;;;;;5039453;28;20693;-70
2022/06/17 11:27:18;;;;;;;0.50;0.50;;;23.70;82.20;;;;;;5048824;28;20243;-70
2022/06/17 11:30:21;;;;;;;0.60;0.60;;;23.80;81.50;;;;;;5049915;28;20194;-72
2022/06/17 11:33:25;;;;;;;0.40;0.40;;;23.90;81.30;;;;;;5048363;28;20762;-68
2022/06/17 11:36:20;;;;;;;0.40;0.40;;;24.00;82.20;;;;;;5050146;28;20566;-69
2022/06/17 11:39:28;;;;;;;1.27;1.17;;;24.30;80.10;;;;;;5049268;28;20274;-67
2022/06/17 11:42:19;;;;;;;1.15;0.80;;;24.40;79.20;;;;;;5046152;28;20243;-68
2022/06/17 11:45:13;;;;;;;0.50;0.50;;;24.40;78.20;;;;;;5050185;28;20217;-69
2022/06/17 11:48:06;;;;;;;0.50;0.50;;;24.30;78.80;;;;;;5038967;28;20619;-69
2022/06/17 11:51:05;;;;;;;0.50;0.50;;;24.40;78.20;;;;;;5049577;28;20208;-69
2022/06/17 11:53:58;;;;;;;0.40;0.40;;;24.30;78.80;;;;;;5054906;28;20214;-70
2022/06/17 11:56:48;;;;;;;0.60;0.50;;;24.60;78.80;;;;;;5054378;28;20194;-68
2022/06/17 11:59:42;;;;;;;0.40;0.40;;;24.80;76.60;;;;;;5053097;28;20221;-70
2022/06/17 12:02:31;;;;;;;0.40;0.40;;;24.80;78.10;;;;;;5052684;28;20220;-69
2022/06/17 12:05:23;;;;;;;0.40;0.40;;;24.90;77.70;;;;;;5053201;28;20700;-69
2022/06/17 12:08:20;;;;;;;0.40;0.40;;;25.00;77.60;;;;;;5042567;28;20193;-69
2022/06/17 12:11:13;;;;;;;0.40;0.40;;;25.10;76.60;;;;;;5053350;28;20955;-69
2022/06/17 12:14:06;;;;;;;0.50;0.50;;;25.20;76.10;;;;;;5040423;28;20614;-68
2022/06/17 12:16:56;;;;;;;0.40;0.40;;;25.30;76.10;;;;;;5053280;28;20230;-69
2022/06/17 12:20:12;;;;;;;0.40;0.40;;;25.50;76.10;;;;;;5043532;28;20751;-68
2022/06/17 12:23:09;;;;;;;0.40;0.40;;;25.60;74.60;;;;;;5053188;28;20276;-68
2022/06/17 12:26:01;;;;;;;0.88;0.77;;;26.10;74.30;;;;;;5039050;28;20208;-66
2022/06/17 12:29:08;;;;;;;0.50;0.50;;;26.50;72.40;;;;;;5052712;28;20292;-66
2022/06/17 12:32:04;;;;;;;0.40;0.40;;;26.90;68.50;;;;;;5042197;28;20662;-67
2022/06/17 12:35:02;;;;;;;0.40;0.40;;;27.10;68.80;;;;;;5052830;28;20222;-67
2022/06/17 12:37:57;;;;;;;0.55;0.55;;;27.40;66.00;;;;;;5049656;28;20206;-67
2022/06/17 12:40:52;;;;;;;0.50;0.50;;;27.70;65.80;;;;;;5052375;28;20213;-68
2022/06/17 12:43:46;;;;;;;0.40;0.40;;;28.30;63.10;;;;;;5052734;28;20229;-67
2022/06/17 12:46:44;;;;;;;0.40;0.40;;;29.10;62.70;;;;;;5053005;28;20277;-66
2022/06/17 12:56:21;;;;;;;0.50;0.50;;;32.20;56.90;;;;;;5043246;28;20197;-66
2022/06/17 12:59:32;;;;;;;0.40;0.40;;;32.30;54.80;;;;;;5052168;28;20250;-67
2022/06/17 13:02:32;;;;;;;0.40;0.40;;;33.50;53.90;;;;;;5052443;28;20197;-67
2022/06/17 13:05:26;;;;;;;0.40;0.40;;;34.10;51.70;;;;;;5052102;28;20201;-67
2022/06/17 13:08:32;;;;;;;1.15;1.15;;;35.10;49.70;;;;;;5052052;28;20213;-67
2022/06/17 13:11:28;;;;;;;0.40;0.40;;;36.10;48.20;;;;;;5052646;28;20200;-67
2022/06/17 13:14:28;;;;;;;0.40;0.40;;;35.90;45.90;;;;;;5043024;28;20225;-68
2022/06/17 13:17:25;;;;;;;0.50;0.50;;;35.20;46.80;;;;;;5052247;28;20212;-68
2022/06/17 13:20:20;;;;;;;0.40;0.40;;;35.40;47.30;;;;;;5049056;28;20217;-67
2022/06/17 13:23:17;;;;;;;0.40;0.40;;;34.60;46.30;;;;;;5047109;28;20221;-67
2022/06/17 13:26:10;;;;;;;0.40;0.40;;;35.20;46.90;;;;;;5038869;28;20204;-67
2022/06/17 13:29:11;;;;;;;0.40;0.40;;;36.00;46.30;;;;;;5051561;28;20189;-67
2022/06/17 13:32:05;;;;;;;0.40;0.40;;;36.20;45.00;;;;;;5048753;28;20224;-67
2022/06/17 13:35:01;;;;;;;0.50;0.50;;;35.60;44.90;;;;;;5051195;28;20217;-67
2022/06/17 13:37:54;;;;;;;0.40;0.40;;;35.30;45.70;;;;;;5051825;28;20197;-66
2022/06/17 13:40:47;;;;;;;0.40;0.40;;;36.20;44.80;;;;;;5049820;28;20217;-66
2022/06/17 13:43:42;;;;;;;0.40;0.40;;;37.10;43.70;;;;;;5051567;28;20233;-67
2022/06/17 13:46:37;;;;;;;0.40;0.40;;;38.40;42.90;;;;;;5052139;28;20193;-67
2022/06/17 13:49:34;;;;;;;0.40;0.40;;;39.10;41.60;;;;;;5051156;28;20201;-67
2022/06/17 13:52:30;;;;;;;0.40;0.40;;;39.00;41.40;;;;;;5051110;28;20392;-68
2022/06/17 13:55:32;;;;;;;0.40;0.40;;;38.10;41.50;;;;;;5052680;28;20635;-67
2022/06/17 13:58:28;;;;;;;0.50;0.50;;;37.20;41.70;;;;;;5039182;28;20223;-68
2022/06/17 14:01:33;;;;;;;0.40;0.40;;;36.70;41.70;;;;;;5050781;28;20205;-67
2022/06/17 14:04:23;;;;;;;0.40;0.40;;;36.90;41.10;;;;;;5040199;28;20213;-67
2022/06/17 14:07:12;;;;;;;0.40;0.40;;;37.30;40.30;;;;;;5046152;28;20331;-67
2022/06/17 14:10:29;;;;;;;0.40;0.40;;;37.70;40.00;;;;;;5045589;28;20201;-67
2022/06/17 14:13:30;;;;;;;0.40;0.40;;;37.10;39.90;;;;;;5043631;28;20234;-67
2022/06/17 14:16:29;;;;;;;0.40;0.40;;;36.30;41.10;;;;;;5040137;28;20234;-67
2022/06/17 14:19:24;;;;;;;0.65;0.65;;;35.80;41.50;;;;;;5047023;28;20208;-66
2022/06/17 14:22:18;;;;;;;0.40;0.40;;;35.20;41.90;;;;;;5047985;28;20194;-67
2022/06/17 14:25:26;;;;;;;0.80;0.80;;;34.90;42.20;;;;;;5045500;28;20229;-68
2022/06/17 14:28:37;;;;;;;0.50;0.50;;;34.00;42.50;;;;;;5047265;28;20189;-66
2022/06/17 14:31:34;;;;;;;0.40;0.40;;;32.80;43.40;;;;;;5049957;28;20236;-66
2022/06/17 14:34:25;;;;;;;0.57;0.57;;;32.40;44.10;;;;;;5050156;28;20224;-66
2022/06/17 14:37:34;;;;;;;0.40;0.40;;;32.50;44.10;;;;;;5052616;28;20227;-66
2022/06/17 14:40:28;;;;;;;0.43;0.43;;;32.10;44.10;;;;;;5031295;28;20218;-65
2022/06/17 14:43:20;;;;;;;0.60;0.50;;;31.70;45.10;;;;;;5042203;28;20228;-66
2022/06/17 14:46:08;;;;;;;0.40;0.40;;;31.80;45.60;;;;;;5050274;28;20247;-67
2022/06/17 14:49:29;;;;;;;0.40;0.40;;;31.60;45.00;;;;;;5050453;28;20193;-67
2022/06/17 14:52:23;;;;;;;0.63;0.63;;;31.40;45.20;;;;;;5051178;28;20209;-67
2022/06/17 14:55:19;;;;;;;0.40;0.40;;;31.40;45.50;;;;;;5050382;28;20197;-67
2022/06/17 14:58:15;;;;;;;0.40;0.40;;;31.60;46.00;;;;;;5050675;28;20751;-67
2022/06/17 15:01:03;;;;;;;1.33;1.33;;;31.60;46.40;;;;;;5051738;28;20224;-66
2022/06/17 15:04:00;;;;;;;0.40;0.40;;;31.30;46.00;;;;;;5050818;28;20221;-67
2022/06/17 15:06:51;;;;;;;0.85;0.85;;;31.30;46.30;;;;;;5049898;28;20683;-67
2022/06/17 15:09:40;;;;;;;0.40;0.40;;;31.40;46.50;;;;;;5050264;28;20209;-66
2022/06/17 15:12:32;;;;;;;0.40;0.40;;;31.90;45.80;;;;;;5050254;28;20197;-67
2022/06/17 15:15:25;;;;;;;0.50;0.50;;;32.40;45.10;;;;;;5050555;28;20823;-66
2022/06/17 15:18:16;;;;;;;0.40;0.40;;;32.20;45.60;;;;;;5049837;28;20665;-66
2022/06/17 15:21:11;;;;;;;0.40;0.40;;;31.80;46.20;;;;;;5050431;28;20217;-67